sensor_id;sensor_type;location;lat;lon;timestamp;P1;durP1;ratioP1;P2;durP2;ratioP2
75516;SDS011;64097;52.548;13.406;2024-02-23T06:01:18;0.20;;;0.20;;
75516;SDS011;64097;52.548;13.406;2024-02-23T06:03:44;0.10;;;0.10;;
75516;SDS011;64097;52.548;13.406;2024-02-23T06:06:10;0.20;;;0.20;;
75516;SDS011;64097;52.548;13.406;2024-02-23T06:08:36;0.28;;;0.20;;
75516;SDS011;64097;52.548;13.406;2024-02-23T06:11:02;0.20;;;0.20;;
75516;SDS011;64097;52.548;13.406;2024-02-23T06:13:29;0.43;;;0.30;;
75516;SDS011;64097;52.548;13.406;2024-02-23T06:15:55;0.20;;;0.20;;
75516;SDS011;64097;52.548;13.406;2024-02-23T06:18:21;0.68;;;0.30;;
75516;SDS011;64097;52.548;13.406;2024-02-23T06:20:47;0.40;;;0.30;;
75516;SDS011;64097;52.548;13.406;2024-02-23T06:23:14;0.70;;;0.50;;
75516;SDS011;64097;52.548;13.406;2024-02-23T06:25:39;0.50;;;0.32;;
75516;SDS011;64097;52.548;13.406;2024-02-23T06:28:05;0.30;;;0.30;;
75516;SDS011;64097;52.548;13.406;2024-02-23T06:30:31;0.20;;;0.20;;
75516;SDS011;64097;52.548;13.406;2024-02-23T06:32:57;0.40;;;0.30;;
75516;SDS011;64097;52.548;13.406;2024-02-23T06:35:23;0.75;;;0.40;;
75516;SDS011;64097;52.548;13.406;2024-02-23T06:37:48;0.32;;;0.20;;
75516;SDS011;64097;52.548;13.406;2024-02-23T06:40:14;0.28;;;0.28;;
75516;SDS011;64097;52.548;13.406;2024-02-23T06:42:40;0.30;;;0.30;;
75516;SDS011;64097;52.548;13.406;2024-02-23T06:45:05;0.55;;;0.25;;
75516;SDS011;64097;52.548;13.406;2024-02-23T06:47:32;0.35;;;0.32;;
75516;SDS011;64097;52.548;13.406;2024-02-23T06:49:59;1.15;;;0.50;;
75516;SDS011;64097;52.548;13.406;2024-02-23T06:52:25;0.47;;;0.30;;
75516;SDS011;64097;52.548;13.406;2024-02-23T06:54:51;0.30;;;0.30;;
75516;SDS011;64097;52.548;13.406;2024-02-23T06:57:17;0.40;;;0.30;;
75516;SDS011;64097;52.548;13.406;2024-02-23T06:59:43;0.73;;;0.38;;
75516;SDS011;64097;52.548;13.406;2024-02-23T07:02:09;0.38;;;0.30;;
75516;SDS011;64097;52.548;13.406;2024-02-23T07:04:35;0.40;;;0.30;;
75516;SDS011;64097;52.548;13.406;2024-02-23T07:07:00;0.50;;;0.40;;
75516;SDS011;64097;52.548;13.406;2024-02-23T07:09:32;0.45;;;0.32;;
75516;SDS011;64097;52.548;13.406;2024-02-23T07:11:58;0.40;;;0.30;;
75516;SDS011;64097;52.548;13.406;2024-02-23T07:14:24;0.50;;;0.40;;
75516;SDS011;64097;52.548;13.406;2024-02-23T07:16:50;0.40;;;0.35;;
75516;SDS011;64097;52.548;13.406;2024-02-23T07:19:17;0.20;;;0.20;;
75516;SDS011;64097;52.548;13.406;2024-02-23T07:21:44;0.52;;;0.30;;
75516;SDS011;64097;52.548;13.406;2024-02-23T07:24:10;0.35;;;0.30;;
75516;SDS011;64097;52.548;13.406;2024-02-23T07:26:36;0.43;;;0.30;;
75516;SDS011;64097;52.548;13.406;2024-02-23T07:29:02;0.30;;;0.30;;
75516;SDS011;64097;52.548;13.406;2024-02-23T07:31:27;0.55;;;0.30;;
75516;SDS011;64097;52.548;13.406;2024-02-23T07:33:53;0.40;;;0.40;;
75516;SDS011;64097;52.548;13.406;2024-02-23T07:36:19;0.77;;;0.40;;
75516;SDS011;64097;52.548;13.406;2024-02-23T07:38:44;0.40;;;0.30;;
75516;SDS011;64097;52.548;13.406;2024-02-23T07:41:11;0.30;;;0.30;;
75516;SDS011;64097;52.548;13.406;2024-02-23T07:43:38;0.40;;;0.30;;
75516;SDS011;64097;52.548;13.406;2024-02-23T07:46:04;1.20;;;0.40;;
75516;SDS011;64097;52.548;13.406;2024-02-23T07:48:33;0.43;;;0.40;;
75516;SDS011;64097;52.548;13.406;2024-02-23T07:51:02;0.50;;;0.40;;
75516;SDS011;64097;52.548;13.406;2024-02-23T07:53:30;0.40;;;0.40;;
75516;SDS011;64097;52.548;13.406;2024-02-23T07:55:56;0.50;;;0.50;;
75516;SDS011;64097;52.548;13.406;2024-02-23T07:58:24;0.40;;;0.30;;
75516;SDS011;64097;52.548;13.406;2024-02-23T08:00:51;0.57;;;0.40;;
75516;SDS011;64097;52.548;13.406;2024-02-23T08:03:18;0.40;;;0.30;;
75516;SDS011;64097;52.548;13.406;2024-02-23T08:05:44;1.40;;;0.40;;
75516;SDS011;64097;52.548;13.406;2024-02-23T08:08:10;0.40;;;0.30;;
75516;SDS011;64097;52.548;13.406;2024-02-23T08:10:35;0.68;;;0.30;;
75516;SDS011;64097;52.548;13.406;2024-02-23T08:13:01;0.50;;;0.40;;
75516;SDS011;64097;52.548;13.406;2024-02-23T08:15:27;0.30;;;0.30;;
75516;SDS011;64097;52.548;13.406;2024-02-23T08:17:53;0.50;;;0.38;;
75516;SDS011;64097;52.548;13.406;2024-02-23T08:20:18;0.43;;;0.30;;
75516;SDS011;64097;52.548;13.406;2024-02-23T08:22:44;0.50;;;0.30;;
75516;SDS011;64097;52.548;13.406;2024-02-23T08:25:10;0.77;;;0.40;;
75516;SDS011;64097;52.548;13.406;2024-02-23T08:27:36;0.85;;;0.38;;
75516;SDS011;64097;52.548;13.406;2024-02-23T08:30:02;0.52;;;0.30;;
75516;SDS011;64097;52.548;13.406;2024-02-23T08:32:28;0.65;;;0.30;;
75516;SDS011;64097;52.548;13.406;2024-02-23T08:34:54;0.73;;;0.40;;
75516;SDS011;64097;52.548;13.406;2024-02-23T08:37:24;1.00;;;0.30;;
75516;SDS011;64097;52.548;13.406;2024-02-23T08:39:51;0.30;;;0.30;;
75516;SDS011;64097;52.548;13.406;2024-02-23T08:42:17;1.38;;;0.40;;
75516;SDS011;64097;52.548;13.406;2024-02-23T08:44:42;0.50;;;0.30;;
75516;SDS011;64097;52.548;13.406;2024-02-23T08:47:08;3.85;;;0.40;;
75516;SDS011;64097;52.548;13.406;2024-02-23T08:49:35;1.42;;;0.52;;
75516;SDS011;64097;52.548;13.406;2024-02-23T08:52:02;0.93;;;0.50;;
75516;SDS011;64097;52.548;13.406;2024-02-23T08:54:29;2.08;;;0.60;;
75516;SDS011;64097;52.548;13.406;2024-02-23T08:56:54;0.70;;;0.50;;
75516;SDS011;64097;52.548;13.406;2024-02-23T08:59:20;1.35;;;0.50;;
75516;SDS011;64097;52.548;13.406;2024-02-23T09:01:46;0.50;;;0.30;;
75516;SDS011;64097;52.548;13.406;2024-02-23T09:04:12;1.80;;;0.50;;
75516;SDS011;64097;52.548;13.406;2024-02-23T09:06:38;0.40;;;0.30;;
75516;SDS011;64097;52.548;13.406;2024-02-23T09:09:04;0.55;;;0.30;;
75516;SDS011;64097;52.548;13.406;2024-02-23T09:11:30;4.90;;;0.40;;
75516;SDS011;64097;52.548;13.406;2024-02-23T09:13:55;1.65;;;0.45;;
75516;SDS011;64097;52.548;13.406;2024-02-23T09:16:21;2.58;;;0.38;;
75516;SDS011;64097;52.548;13.406;2024-02-23T09:18:50;1.95;;;0.40;;
75516;SDS011;64097;52.548;13.406;2024-02-23T09:21:21;0.82;;;0.40;;
75516;SDS011;64097;52.548;13.406;2024-02-23T09:23:46;17.02;;;1.02;;
75516;SDS011;64097;52.548;13.406;2024-02-23T09:26:12;6.13;;;0.80;;
75516;SDS011;64097;52.548;13.406;2024-02-23T09:28:38;2.45;;;0.50;;
75516;SDS011;64097;52.548;13.406;2024-02-23T09:31:06;0.73;;;0.30;;
75516;SDS011;64097;52.548;13.406;2024-02-23T09:33:32;0.40;;;0.30;;
75516;SDS011;64097;52.548;13.406;2024-02-23T09:35:58;0.38;;;0.30;;
75516;SDS011;64097;52.548;13.406;2024-02-23T09:38:24;1.88;;;0.40;;
75516;SDS011;64097;52.548;13.406;2024-02-23T09:40:53;2.85;;;0.52;;
75516;SDS011;64097;52.548;13.406;2024-02-23T09:43:20;3.28;;;0.50;;
75516;SDS011;64097;52.548;13.406;2024-02-23T09:45:47;0.93;;;0.40;;
75516;SDS011;64097;52.548;13.406;2024-02-23T09:48:17;0.68;;;0.40;;
75516;SDS011;64097;52.548;13.406;2024-02-23T09:50:44;0.52;;;0.40;;
75516;SDS011;64097;52.548;13.406;2024-02-23T09:53:11;2.10;;;0.95;;
75516;SDS011;64097;52.548;13.406;2024-02-23T09:55:38;3.53;;;1.15;;
75516;SDS011;64097;52.548;13.406;2024-02-23T09:58:04;1.17;;;0.82;;
75516;SDS011;64097;52.548;13.406;2024-02-23T10:00:31;2.40;;;0.90;;
75516;SDS011;64097;52.548;13.406;2024-02-23T10:02:58;2.53;;;0.70;;
75516;SDS011;64097;52.548;13.406;2024-02-23T10:05:28;0.60;;;0.50;;
75516;SDS011;64097;52.548;13.406;2024-02-23T10:07:55;1.48;;;0.60;;
75516;SDS011;64097;52.548;13.406;2024-02-23T10:10:29;1.30;;;0.60;;
75516;SDS011;64097;52.548;13.406;2024-02-23T10:12:57;1.08;;;0.35;;
75516;SDS011;64097;52.548;13.406;2024-02-23T10:15:23;0.80;;;0.40;;
75516;SDS011;64097;52.548;13.406;2024-02-23T10:17:50;0.38;;;0.30;;
75516;SDS011;64097;52.548;13.406;2024-02-23T10:20:15;0.40;;;0.40;;
75516;SDS011;64097;52.548;13.406;2024-02-23T10:22:42;0.60;;;0.30;;
75516;SDS011;64097;52.548;13.406;2024-02-23T10:25:09;0.50;;;0.30;;
75516;SDS011;64097;52.548;13.406;2024-02-23T10:27:34;0.40;;;0.20;;
75516;SDS011;64097;52.548;13.406;2024-02-23T10:30:00;0.65;;;0.38;;
75516;SDS011;64097;52.548;13.406;2024-02-23T10:32:26;0.95;;;0.40;;
75516;SDS011;64097;52.548;13.406;2024-02-23T10:34:55;0.32;;;0.22;;
75516;SDS011;64097;52.548;13.406;2024-02-23T10:37:25;0.90;;;0.38;;
75516;SDS011;64097;52.548;13.406;2024-02-23T10:39:53;0.95;;;0.30;;
75516;SDS011;64097;52.548;13.406;2024-02-23T10:42:24;0.95;;;0.45;;
75516;SDS011;64097;52.548;13.406;2024-02-23T10:44:55;0.65;;;0.40;;
75516;SDS011;64097;52.548;13.406;2024-02-23T10:47:26;0.73;;;0.38;;
75516;SDS011;64097;52.548;13.406;2024-02-23T10:49:53;0.52;;;0.30;;
75516;SDS011;64097;52.548;13.406;2024-02-23T10:52:19;0.30;;;0.30;;
75516;SDS011;64097;52.548;13.406;2024-02-23T10:54:48;0.50;;;0.40;;
75516;SDS011;64097;52.548;13.406;2024-02-23T10:57:17;0.35;;;0.20;;
75516;SDS011;64097;52.548;13.406;2024-02-23T10:59:45;0.60;;;0.30;;
75516;SDS011;64097;52.548;13.406;2024-02-23T11:02:12;0.82;;;0.50;;
75516;SDS011;64097;52.548;13.406;2024-02-23T11:04:42;0.45;;;0.30;;
75516;SDS011;64097;52.548;13.406;2024-02-23T11:07:15;0.88;;;0.40;;
75516;SDS011;64097;52.548;13.406;2024-02-23T11:09:47;1.15;;;0.40;;
75516;SDS011;64097;52.548;13.406;2024-02-23T11:12:24;0.30;;;0.20;;
75516;SDS011;64097;52.548;13.406;2024-02-23T11:14:50;1.48;;;0.40;;
75516;SDS011;64097;52.548;13.406;2024-02-23T11:17:19;0.80;;;0.40;;
75516;SDS011;64097;52.548;13.406;2024-02-23T11:19:46;0.68;;;0.40;;
75516;SDS011;64097;52.548;13.406;2024-02-23T11:22:14;0.35;;;0.25;;
75516;SDS011;64097;52.548;13.406;2024-02-23T11:24:43;0.60;;;0.30;;
75516;SDS011;64097;52.548;13.406;2024-02-23T11:27:13;0.82;;;0.50;;
75516;SDS011;64097;52.548;13.406;2024-02-23T11:29:42;0.63;;;0.32;;
75516;SDS011;64097;52.548;13.406;2024-02-23T11:32:15;0.40;;;0.30;;
75516;SDS011;64097;52.548;13.406;2024-02-23T11:37:19;0.75;;;0.30;;
75516;SDS011;64097;52.548;13.406;2024-02-23T11:39:44;1.27;;;0.50;;
75516;SDS011;64097;52.548;13.406;2024-02-23T11:42:11;0.93;;;0.43;;
75516;SDS011;64097;52.548;13.406;2024-02-23T11:44:37;0.70;;;0.32;;
75516;SDS011;64097;52.548;13.406;2024-02-23T11:47:03;0.95;;;0.50;;
75516;SDS011;64097;52.548;13.406;2024-02-23T11:49:29;2.60;;;0.40;;
75516;SDS011;64097;52.548;13.406;2024-02-23T11:51:56;0.95;;;0.40;;
75516;SDS011;64097;52.548;13.406;2024-02-23T11:54:22;0.88;;;0.40;;
75516;SDS011;64097;52.548;13.406;2024-02-23T11:56:48;0.70;;;0.30;;
75516;SDS011;64097;52.548;13.406;2024-02-23T11:59:17;2.33;;;0.40;;
75516;SDS011;64097;52.548;13.406;2024-02-23T12:01:45;0.73;;;0.40;;
75516;SDS011;64097;52.548;13.406;2024-02-23T12:04:13;1.40;;;0.52;;
75516;SDS011;64097;52.548;13.406;2024-02-23T12:06:41;2.58;;;0.60;;
75516;SDS011;64097;52.548;13.406;2024-02-23T12:09:07;1.98;;;0.50;;
75516;SDS011;64097;52.548;13.406;2024-02-23T12:11:34;0.40;;;0.30;;
75516;SDS011;64097;52.548;13.406;2024-02-23T12:14:00;1.95;;;0.40;;
75516;SDS011;64097;52.548;13.406;2024-02-23T12:16:27;3.17;;;0.50;;
75516;SDS011;64097;52.548;13.406;2024-02-23T12:18:53;1.45;;;0.70;;
75516;SDS011;64097;52.548;13.406;2024-02-23T12:21:20;1.20;;;0.65;;
75516;SDS011;64097;52.548;13.406;2024-02-23T12:23:48;1.48;;;1.00;;
75516;SDS011;64097;52.548;13.406;2024-02-23T12:26:15;1.02;;;0.52;;
75516;SDS011;64097;52.548;13.406;2024-02-23T12:28:42;1.05;;;0.60;;
75516;SDS011;64097;52.548;13.406;2024-02-23T12:31:08;0.70;;;0.50;;
75516;SDS011;64097;52.548;13.406;2024-02-23T12:33:35;0.90;;;0.40;;
75516;SDS011;64097;52.548;13.406;2024-02-23T12:36:03;1.20;;;0.40;;
75516;SDS011;64097;52.548;13.406;2024-02-23T12:38:29;0.95;;;0.45;;
75516;SDS011;64097;52.548;13.406;2024-02-23T12:40:56;1.92;;;0.40;;
75516;SDS011;64097;52.548;13.406;2024-02-23T12:43:22;0.68;;;0.45;;
75516;SDS011;64097;52.548;13.406;2024-02-23T12:45:54;0.93;;;0.43;;
75516;SDS011;64097;52.548;13.406;2024-02-23T12:48:20;1.45;;;0.50;;
75516;SDS011;64097;52.548;13.406;2024-02-23T12:50:46;0.95;;;0.40;;
75516;SDS011;64097;52.548;13.406;2024-02-23T12:53:35;1.17;;;0.40;;
75516;SDS011;64097;52.548;13.406;2024-02-23T12:56:03;0.60;;;0.40;;
75516;SDS011;64097;52.548;13.406;2024-02-23T12:58:37;1.42;;;0.40;;
75516;SDS011;64097;52.548;13.406;2024-02-23T13:03:31;1.52;;;0.30;;
75516;SDS011;64097;52.548;13.406;2024-02-23T13:05:57;2.15;;;0.40;;
75516;SDS011;64097;52.548;13.406;2024-02-23T13:08:23;0.50;;;0.20;;
75516;SDS011;64097;52.548;13.406;2024-02-23T13:10:50;1.85;;;0.40;;
75516;SDS011;64097;52.548;13.406;2024-02-23T13:13:17;0.95;;;0.40;;
75516;SDS011;64097;52.548;13.406;2024-02-23T13:15:44;0.93;;;0.40;;
75516;SDS011;64097;52.548;13.406;2024-02-23T13:18:10;1.17;;;0.57;;
75516;SDS011;64097;52.548;13.406;2024-02-23T13:20:36;1.60;;;0.40;;
75516;SDS011;64097;52.548;13.406;2024-02-23T13:23:03;1.23;;;0.40;;
75516;SDS011;64097;52.548;13.406;2024-02-23T13:25:29;2.22;;;0.50;;
75516;SDS011;64097;52.548;13.406;2024-02-23T13:27:55;0.80;;;0.40;;
75516;SDS011;64097;52.548;13.406;2024-02-23T13:30:21;1.73;;;0.60;;
75516;SDS011;64097;52.548;13.406;2024-02-23T13:32:47;1.70;;;0.57;;
75516;SDS011;64097;52.548;13.406;2024-02-23T13:35:12;1.52;;;0.50;;
75516;SDS011;64097;52.548;13.406;2024-02-23T13:37:39;1.83;;;0.50;;
75516;SDS011;64097;52.548;13.406;2024-02-23T13:40:06;1.90;;;0.50;;
75516;SDS011;64097;52.548;13.406;2024-02-23T13:42:34;1.02;;;0.40;;
75516;SDS011;64097;52.548;13.406;2024-02-23T13:45:00;1.00;;;0.43;;
75516;SDS011;64097;52.548;13.406;2024-02-23T13:47:25;0.65;;;0.43;;
75516;SDS011;64097;52.548;13.406;2024-02-23T13:49:51;1.38;;;0.43;;
75516;SDS011;64097;52.548;13.406;2024-02-23T13:52:17;1.40;;;0.40;;
75516;SDS011;64097;52.548;13.406;2024-02-23T13:54:42;1.00;;;0.40;;
75516;SDS011;64097;52.548;13.406;2024-02-23T13:57:08;1.17;;;0.40;;
75516;SDS011;64097;52.548;13.406;2024-02-23T13:59:34;0.77;;;0.40;;
